aviador You're here:

KCDW Decoded Metar

CALDWELL in NJ, USA
Report Time2017-05-26 11:13:00
UTC Time2017-05-26 11:18:02
Flight Rules mvfr MVFR
WindCalm
Visibility9999 m
Phenomena:Light Rain
Clouds:Broken 019 Hf
Broken 028 Hf
Overcast 060 Hf
Expected CloudBase > 400 ft AGL from Temp-Dew spread
Ceiling1,900 ft
Temp14°C (ISA -1)
Dew Point13°C (94% RH)
QNH1001 hPa
Density Alt751 ft
Elevation210 ft
Report Wrong Elevation
Raw Report
SPECI KCDW 261113Z 00000KT 10SM -RA BKN019 BKN028 OVC060 14/13 A2957
RMK AO2 P0000 T01390128 $=

Extra information for KCDW:More info

Metar Taf Metar & Taf Last 4 Metars F.Rules Stats Wind Profile Meteogram Temp Stats Airport Information Weather charts Add Link Nearby VenuesMetar ALERT Operation Metar Decoded Social comments

AIRNAV info for KCDW